sensor_id;sensor_type;location;lat;lon;timestamp;temperature;humidity
5280;DHT22;2663;53.588;10.010;2023-12-07T00:02:25;2.80;99.90
5280;DHT22;2663;53.588;10.010;2023-12-07T00:04:53;2.80;99.90
5280;DHT22;2663;53.588;10.010;2023-12-07T00:07:20;2.80;99.90
5280;DHT22;2663;53.588;10.010;2023-12-07T00:09:46;2.70;99.90
5280;DHT22;2663;53.588;10.010;2023-12-07T00:12:13;2.80;99.90
5280;DHT22;2663;53.588;10.010;2023-12-07T00:14:40;2.70;99.90
5280;DHT22;2663;53.588;10.010;2023-12-07T00:17:06;2.70;99.90
5280;DHT22;2663;53.588;10.010;2023-12-07T00:19:33;2.70;99.90
5280;DHT22;2663;53.588;10.010;2023-12-07T00:26:54;2.70;99.90
5280;DHT22;2663;53.588;10.010;2023-12-07T00:29:21;2.60;99.90
5280;DHT22;2663;53.588;10.010;2023-12-07T00:31:48;2.60;99.90
5280;DHT22;2663;53.588;10.010;2023-12-07T00:34:15;2.70;99.90
5280;DHT22;2663;53.588;10.010;2023-12-07T00:36:44;2.80;99.90
5280;DHT22;2663;53.588;10.010;2023-12-07T00:39:10;2.80;99.90
5280;DHT22;2663;53.588;10.010;2023-12-07T00:41:37;2.80;99.90
5280;DHT22;2663;53.588;10.010;2023-12-07T00:44:04;2.10;99.90
5280;DHT22;2663;53.588;10.010;2023-12-07T00:46:32;2.90;99.90
5280;DHT22;2663;53.588;10.010;2023-12-07T00:48:59;2.90;99.90
5280;DHT22;2663;53.588;10.010;2023-12-07T00:51:26;2.80;99.90
5280;DHT22;2663;53.588;10.010;2023-12-07T00:53:52;2.80;99.90
5280;DHT22;2663;53.588;10.010;2023-12-07T00:56:19;2.80;99.90
5280;DHT22;2663;53.588;10.010;2023-12-07T00:58:46;2.90;99.90
5280;DHT22;2663;53.588;10.010;2023-12-07T01:01:13;2.90;99.90
5280;DHT22;2663;53.588;10.010;2023-12-07T01:06:07;3.00;99.90
5280;DHT22;2663;53.588;10.010;2023-12-07T01:08:34;3.00;99.90
5280;DHT22;2663;53.588;10.010;2023-12-07T01:11:01;2.90;99.90
5280;DHT22;2663;53.588;10.010;2023-12-07T01:13:28;2.90;99.90
5280;DHT22;2663;53.588;10.010;2023-12-07T01:15:55;3.80;99.90
5280;DHT22;2663;53.588;10.010;2023-12-07T01:18:22;2.80;99.90
5280;DHT22;2663;53.588;10.010;2023-12-07T01:20:48;2.90;99.90
5280;DHT22;2663;53.588;10.010;2023-12-07T01:23:16;2.90;99.90
5280;DHT22;2663;53.588;10.010;2023-12-07T01:25:42;5.60;99.90
5280;DHT22;2663;53.588;10.010;2023-12-07T01:28:09;7.00;99.90
5280;DHT22;2663;53.588;10.010;2023-12-07T01:30:36;2.90;99.90
5280;DHT22;2663;53.588;10.010;2023-12-07T01:33:04;2.90;99.90
5280;DHT22;2663;53.588;10.010;2023-12-07T01:35:31;3.00;99.90
5280;DHT22;2663;53.588;10.010;2023-12-07T01:37:57;3.00;99.90
5280;DHT22;2663;53.588;10.010;2023-12-07T01:40:24;3.00;99.90
5280;DHT22;2663;53.588;10.010;2023-12-07T01:42:52;3.00;99.90
5280;DHT22;2663;53.588;10.010;2023-12-07T01:45:19;2.90;99.90
5280;DHT22;2663;53.588;10.010;2023-12-07T01:47:47;2.90;99.90
5280;DHT22;2663;53.588;10.010;2023-12-07T01:50:16;2.70;99.90
5280;DHT22;2663;53.588;10.010;2023-12-07T01:52:46;2.80;99.90
5280;DHT22;2663;53.588;10.010;2023-12-07T01:55:14;2.80;99.90
5280;DHT22;2663;53.588;10.010;2023-12-07T01:57:43;2.80;99.90
5280;DHT22;2663;53.588;10.010;2023-12-07T02:00:12;2.30;99.90
5280;DHT22;2663;53.588;10.010;2023-12-07T02:05:07;2.80;99.90
5280;DHT22;2663;53.588;10.010;2023-12-07T02:10:01;2.80;99.90
5280;DHT22;2663;53.588;10.010;2023-12-07T02:12:29;2.80;99.90
5280;DHT22;2663;53.588;10.010;2023-12-07T02:14:56;2.90;99.90
5280;DHT22;2663;53.588;10.010;2023-12-07T02:17:27;6.10;99.90
5280;DHT22;2663;53.588;10.010;2023-12-07T02:20:01;2.90;99.90
5280;DHT22;2663;53.588;10.010;2023-12-07T02:22:40;2.90;99.90
5280;DHT22;2663;53.588;10.010;2023-12-07T02:25:10;3.00;99.90
5280;DHT22;2663;53.588;10.010;2023-12-07T02:27:39;2.90;99.90
5280;DHT22;2663;53.588;10.010;2023-12-07T02:30:08;2.90;99.90
5280;DHT22;2663;53.588;10.010;2023-12-07T02:32:37;3.00;99.90
5280;DHT22;2663;53.588;10.010;2023-12-07T02:35:05;3.00;99.90
5280;DHT22;2663;53.588;10.010;2023-12-07T02:37:36;3.00;99.90
5280;DHT22;2663;53.588;10.010;2023-12-07T02:40:07;3.00;99.90
5280;DHT22;2663;53.588;10.010;2023-12-07T02:42:39;3.10;99.90
5280;DHT22;2663;53.588;10.010;2023-12-07T02:45:08;3.10;99.90
5280;DHT22;2663;53.588;10.010;2023-12-07T02:47:36;3.10;99.90
5280;DHT22;2663;53.588;10.010;2023-12-07T02:50:05;3.10;99.90
5280;DHT22;2663;53.588;10.010;2023-12-07T02:52:32;5.20;99.90
5280;DHT22;2663;53.588;10.010;2023-12-07T02:54:59;3.10;99.90
5280;DHT22;2663;53.588;10.010;2023-12-07T02:57:26;3.30;99.90
5280;DHT22;2663;53.588;10.010;2023-12-07T02:59:53;3.30;99.90
5280;DHT22;2663;53.588;10.010;2023-12-07T03:02:19;3.30;99.90
5280;DHT22;2663;53.588;10.010;2023-12-07T03:04:47;6.00;99.90
5280;DHT22;2663;53.588;10.010;2023-12-07T03:07:14;3.10;99.90
5280;DHT22;2663;53.588;10.010;2023-12-07T03:09:41;3.20;99.90
5280;DHT22;2663;53.588;10.010;2023-12-07T03:12:08;3.40;99.90
5280;DHT22;2663;53.588;10.010;2023-12-07T03:14:35;3.40;99.90
5280;DHT22;2663;53.588;10.010;2023-12-07T03:17:01;3.40;99.90
5280;DHT22;2663;53.588;10.010;2023-12-07T03:19:28;3.40;99.90
5280;DHT22;2663;53.588;10.010;2023-12-07T03:21:55;3.40;99.90
5280;DHT22;2663;53.588;10.010;2023-12-07T03:24:22;3.40;99.90
5280;DHT22;2663;53.588;10.010;2023-12-07T03:26:48;3.40;99.90
5280;DHT22;2663;53.588;10.010;2023-12-07T03:29:15;3.40;99.90
5280;DHT22;2663;53.588;10.010;2023-12-07T03:31:42;3.50;99.90
5280;DHT22;2663;53.588;10.010;2023-12-07T03:34:09;3.50;99.90
5280;DHT22;2663;53.588;10.010;2023-12-07T03:36:36;3.50;99.90
5280;DHT22;2663;53.588;10.010;2023-12-07T03:39:03;3.50;99.90
5280;DHT22;2663;53.588;10.010;2023-12-07T03:41:31;3.40;99.90
5280;DHT22;2663;53.588;10.010;2023-12-07T03:43:58;3.50;99.90
5280;DHT22;2663;53.588;10.010;2023-12-07T03:46:25;3.50;99.90
5280;DHT22;2663;53.588;10.010;2023-12-07T03:48:51;3.50;99.90
5280;DHT22;2663;53.588;10.010;2023-12-07T03:51:18;3.40;99.90
5280;DHT22;2663;53.588;10.010;2023-12-07T03:53:45;3.40;99.90
5280;DHT22;2663;53.588;10.010;2023-12-07T03:56:25;3.40;99.90
5280;DHT22;2663;53.588;10.010;2023-12-07T03:58:52;3.40;99.90
5280;DHT22;2663;53.588;10.010;2023-12-07T04:01:26;3.50;99.90
5280;DHT22;2663;53.588;10.010;2023-12-07T04:03:54;3.60;99.90
5280;DHT22;2663;53.588;10.010;2023-12-07T04:06:22;3.50;99.90
5280;DHT22;2663;53.588;10.010;2023-12-07T04:08:50;3.30;99.90
5280;DHT22;2663;53.588;10.010;2023-12-07T04:11:17;3.40;99.90
5280;DHT22;2663;53.588;10.010;2023-12-07T04:13:44;3.40;99.90
5280;DHT22;2663;53.588;10.010;2023-12-07T04:16:11;3.50;99.90
5280;DHT22;2663;53.588;10.010;2023-12-07T04:18:38;3.50;99.90
5280;DHT22;2663;53.588;10.010;2023-12-07T04:21:05;3.50;99.90
5280;DHT22;2663;53.588;10.010;2023-12-07T04:23:33;3.50;99.90
5280;DHT22;2663;53.588;10.010;2023-12-07T04:25:59;3.60;99.90
5280;DHT22;2663;53.588;10.010;2023-12-07T04:28:26;3.50;99.90
5280;DHT22;2663;53.588;10.010;2023-12-07T04:30:53;3.60;99.90
5280;DHT22;2663;53.588;10.010;2023-12-07T04:33:20;3.60;99.90
5280;DHT22;2663;53.588;10.010;2023-12-07T04:35:47;3.60;99.90
5280;DHT22;2663;53.588;10.010;2023-12-07T04:38:14;3.50;99.90
5280;DHT22;2663;53.588;10.010;2023-12-07T04:40:40;3.50;99.90
5280;DHT22;2663;53.588;10.010;2023-12-07T04:43:08;3.60;99.90
5280;DHT22;2663;53.588;10.010;2023-12-07T04:45:35;3.60;99.90
5280;DHT22;2663;53.588;10.010;2023-12-07T04:48:02;3.60;99.90
5280;DHT22;2663;53.588;10.010;2023-12-07T04:50:31;3.50;99.90
5280;DHT22;2663;53.588;10.010;2023-12-07T04:52:57;3.50;99.90
5280;DHT22;2663;53.588;10.010;2023-12-07T04:55:24;3.40;99.90
5280;DHT22;2663;53.588;10.010;2023-12-07T04:57:51;3.60;99.90
5280;DHT22;2663;53.588;10.010;2023-12-07T05:00:18;3.60;99.90
5280;DHT22;2663;53.588;10.010;2023-12-07T05:02:45;3.60;99.90
5280;DHT22;2663;53.588;10.010;2023-12-07T05:05:12;3.70;99.90
5280;DHT22;2663;53.588;10.010;2023-12-07T05:07:39;3.60;99.90
5280;DHT22;2663;53.588;10.010;2023-12-07T05:10:06;3.60;99.90
5280;DHT22;2663;53.588;10.010;2023-12-07T05:12:33;3.50;99.90
5280;DHT22;2663;53.588;10.010;2023-12-07T05:15:00;3.50;99.90
5280;DHT22;2663;53.588;10.010;2023-12-07T05:17:26;3.50;99.90
5280;DHT22;2663;53.588;10.010;2023-12-07T05:19:53;3.50;99.90
5280;DHT22;2663;53.588;10.010;2023-12-07T05:22:20;3.50;99.90
5280;DHT22;2663;53.588;10.010;2023-12-07T05:24:48;1.10;99.90
5280;DHT22;2663;53.588;10.010;2023-12-07T05:27:16;3.50;99.90
5280;DHT22;2663;53.588;10.010;2023-12-07T05:29:43;3.70;99.90
5280;DHT22;2663;53.588;10.010;2023-12-07T05:32:11;3.70;99.90
5280;DHT22;2663;53.588;10.010;2023-12-07T05:34:37;3.40;99.90
5280;DHT22;2663;53.588;10.010;2023-12-07T05:37:05;4.60;99.90
5280;DHT22;2663;53.588;10.010;2023-12-07T05:39:31;3.70;99.90
5280;DHT22;2663;53.588;10.010;2023-12-07T05:41:58;7.10;99.90
5280;DHT22;2663;53.588;10.010;2023-12-07T05:44:25;3.50;99.90
5280;DHT22;2663;53.588;10.010;2023-12-07T05:46:52;3.50;99.90
5280;DHT22;2663;53.588;10.010;2023-12-07T05:49:18;7.60;99.90
5280;DHT22;2663;53.588;10.010;2023-12-07T05:51:45;3.70;99.90
5280;DHT22;2663;53.588;10.010;2023-12-07T05:54:12;3.50;99.90
5280;DHT22;2663;53.588;10.010;2023-12-07T05:56:39;3.50;99.90
5280;DHT22;2663;53.588;10.010;2023-12-07T05:59:07;3.60;99.90
5280;DHT22;2663;53.588;10.010;2023-12-07T06:01:33;3.50;99.90
5280;DHT22;2663;53.588;10.010;2023-12-07T06:04:00;3.50;99.90
5280;DHT22;2663;53.588;10.010;2023-12-07T06:06:27;3.60;99.90
5280;DHT22;2663;53.588;10.010;2023-12-07T06:08:54;3.70;99.90
5280;DHT22;2663;53.588;10.010;2023-12-07T06:13:48;3.70;99.90
5280;DHT22;2663;53.588;10.010;2023-12-07T06:16:14;3.70;99.90
5280;DHT22;2663;53.588;10.010;2023-12-07T06:18:43;3.60;99.90
5280;DHT22;2663;53.588;10.010;2023-12-07T06:21:10;3.70;99.90
5280;DHT22;2663;53.588;10.010;2023-12-07T06:23:37;3.70;99.90
5280;DHT22;2663;53.588;10.010;2023-12-07T06:26:03;3.70;99.90
5280;DHT22;2663;53.588;10.010;2023-12-07T06:28:32;3.60;99.90
5280;DHT22;2663;53.588;10.010;2023-12-07T06:31:04;3.60;99.90
5280;DHT22;2663;53.588;10.010;2023-12-07T06:33:33;3.50;99.90
5280;DHT22;2663;53.588;10.010;2023-12-07T06:35:59;1.60;99.90
5280;DHT22;2663;53.588;10.010;2023-12-07T06:38:26;3.50;99.90
5280;DHT22;2663;53.588;10.010;2023-12-07T06:40:53;3.50;99.90
5280;DHT22;2663;53.588;10.010;2023-12-07T06:43:20;3.70;99.90
5280;DHT22;2663;53.588;10.010;2023-12-07T06:45:46;3.80;99.90
5280;DHT22;2663;53.588;10.010;2023-12-07T06:48:13;3.60;99.90
5280;DHT22;2663;53.588;10.010;2023-12-07T06:50:40;3.60;99.90
5280;DHT22;2663;53.588;10.010;2023-12-07T06:53:07;3.70;99.90
5280;DHT22;2663;53.588;10.010;2023-12-07T06:55:33;3.70;99.90
5280;DHT22;2663;53.588;10.010;2023-12-07T06:58:06;3.70;99.90
5280;DHT22;2663;53.588;10.010;2023-12-07T07:00:33;4.00;99.90
5280;DHT22;2663;53.588;10.010;2023-12-07T07:03:00;3.80;99.90
5280;DHT22;2663;53.588;10.010;2023-12-07T07:05:27;4.10;99.90
5280;DHT22;2663;53.588;10.010;2023-12-07T07:07:54;4.10;99.90
5280;DHT22;2663;53.588;10.010;2023-12-07T07:10:22;4.10;99.90
5280;DHT22;2663;53.588;10.010;2023-12-07T07:12:48;4.30;99.90
5280;DHT22;2663;53.588;10.010;2023-12-07T07:15:16;4.20;99.90
5280;DHT22;2663;53.588;10.010;2023-12-07T07:17:43;4.20;99.90
5280;DHT22;2663;53.588;10.010;2023-12-07T07:20:10;4.20;99.90
5280;DHT22;2663;53.588;10.010;2023-12-07T07:22:37;4.10;99.90
5280;DHT22;2663;53.588;10.010;2023-12-07T07:25:04;4.00;99.90
5280;DHT22;2663;53.588;10.010;2023-12-07T07:27:31;4.00;99.90
5280;DHT22;2663;53.588;10.010;2023-12-07T07:29:58;4.00;99.90
5280;DHT22;2663;53.588;10.010;2023-12-07T07:32:24;4.00;99.90
5280;DHT22;2663;53.588;10.010;2023-12-07T07:34:51;4.00;99.90
5280;DHT22;2663;53.588;10.010;2023-12-07T07:37:18;4.00;99.90
5280;DHT22;2663;53.588;10.010;2023-12-07T07:39:45;3.90;99.90
5280;DHT22;2663;53.588;10.010;2023-12-07T07:42:13;3.90;99.90
5280;DHT22;2663;53.588;10.010;2023-12-07T07:44:40;4.00;99.90
5280;DHT22;2663;53.588;10.010;2023-12-07T07:47:07;4.20;99.90
5280;DHT22;2663;53.588;10.010;2023-12-07T07:49:34;4.30;99.90
5280;DHT22;2663;53.588;10.010;2023-12-07T07:52:01;4.40;99.90
5280;DHT22;2663;53.588;10.010;2023-12-07T07:54:28;4.40;99.90
5280;DHT22;2663;53.588;10.010;2023-12-07T07:56:55;4.30;99.90
5280;DHT22;2663;53.588;10.010;2023-12-07T07:59:22;5.30;99.90
5280;DHT22;2663;53.588;10.010;2023-12-07T08:01:48;4.00;99.90
5280;DHT22;2663;53.588;10.010;2023-12-07T08:04:16;3.90;99.90
5280;DHT22;2663;53.588;10.010;2023-12-07T08:06:42;3.90;99.90
5280;DHT22;2663;53.588;10.010;2023-12-07T08:09:09;4.00;99.90
5280;DHT22;2663;53.588;10.010;2023-12-07T08:11:37;4.00;99.90
5280;DHT22;2663;53.588;10.010;2023-12-07T08:14:03;4.00;99.90
5280;DHT22;2663;53.588;10.010;2023-12-07T08:16:30;3.90;99.90
5280;DHT22;2663;53.588;10.010;2023-12-07T08:18:57;3.80;99.90
5280;DHT22;2663;53.588;10.010;2023-12-07T08:21:25;3.80;99.90
5280;DHT22;2663;53.588;10.010;2023-12-07T08:23:56;3.80;99.90
5280;DHT22;2663;53.588;10.010;2023-12-07T08:26:23;3.80;99.90
5280;DHT22;2663;53.588;10.010;2023-12-07T08:28:50;3.80;99.90
5280;DHT22;2663;53.588;10.010;2023-12-07T08:31:21;3.90;99.90
5280;DHT22;2663;53.588;10.010;2023-12-07T08:33:52;4.70;99.90
5280;DHT22;2663;53.588;10.010;2023-12-07T08:36:19;5.30;99.90
5280;DHT22;2663;53.588;10.010;2023-12-07T08:38:46;5.00;99.90
5280;DHT22;2663;53.588;10.010;2023-12-07T08:41:13;4.70;99.90
5280;DHT22;2663;53.588;10.010;2023-12-07T08:43:40;4.60;99.90
5280;DHT22;2663;53.588;10.010;2023-12-07T08:46:07;4.30;99.90
5280;DHT22;2663;53.588;10.010;2023-12-07T08:48:36;4.20;99.90
5280;DHT22;2663;53.588;10.010;2023-12-07T08:51:08;4.10;99.90
5280;DHT22;2663;53.588;10.010;2023-12-07T08:53:35;4.20;99.90
5280;DHT22;2663;53.588;10.010;2023-12-07T08:56:02;4.20;99.90
5280;DHT22;2663;53.588;10.010;2023-12-07T08:58:29;4.20;99.90
5280;DHT22;2663;53.588;10.010;2023-12-07T09:00:56;4.70;99.90
5280;DHT22;2663;53.588;10.010;2023-12-07T09:03:23;4.20;99.90
5280;DHT22;2663;53.588;10.010;2023-12-07T09:05:54;4.20;99.90
5280;DHT22;2663;53.588;10.010;2023-12-07T09:08:21;4.30;99.90
5280;DHT22;2663;53.588;10.010;2023-12-07T09:10:48;4.30;99.90
5280;DHT22;2663;53.588;10.010;2023-12-07T09:13:18;4.40;99.90
5280;DHT22;2663;53.588;10.010;2023-12-07T09:15:44;4.30;99.90
5280;DHT22;2663;53.588;10.010;2023-12-07T09:18:11;4.30;99.90
5280;DHT22;2663;53.588;10.010;2023-12-07T09:20:41;4.30;99.90
5280;DHT22;2663;53.588;10.010;2023-12-07T09:23:13;4.50;99.90
5280;DHT22;2663;53.588;10.010;2023-12-07T09:25:42;4.40;99.90
5280;DHT22;2663;53.588;10.010;2023-12-07T09:28:09;4.50;99.90
5280;DHT22;2663;53.588;10.010;2023-12-07T09:30:36;4.40;99.90
5280;DHT22;2663;53.588;10.010;2023-12-07T09:33:02;4.40;99.90
5280;DHT22;2663;53.588;10.010;2023-12-07T09:35:30;4.40;99.90
5280;DHT22;2663;53.588;10.010;2023-12-07T09:37:57;4.50;99.90
5280;DHT22;2663;53.588;10.010;2023-12-07T09:40:24;4.60;99.90
5280;DHT22;2663;53.588;10.010;2023-12-07T09:42:52;4.60;99.90
5280;DHT22;2663;53.588;10.010;2023-12-07T09:45:19;4.60;99.90
5280;DHT22;2663;53.588;10.010;2023-12-07T09:47:51;4.50;99.90
5280;DHT22;2663;53.588;10.010;2023-12-07T09:50:21;4.50;99.90
5280;DHT22;2663;53.588;10.010;2023-12-07T09:52:50;4.50;99.90
5280;DHT22;2663;53.588;10.010;2023-12-07T09:55:33;4.50;99.90
5280;DHT22;2663;53.588;10.010;2023-12-07T09:58:03;4.60;99.90
5280;DHT22;2663;53.588;10.010;2023-12-07T10:00:31;4.50;99.90
5280;DHT22;2663;53.588;10.010;2023-12-07T10:02:59;4.50;99.90
5280;DHT22;2663;53.588;10.010;2023-12-07T10:05:26;4.50;99.90
5280;DHT22;2663;53.588;10.010;2023-12-07T10:07:53;4.60;99.90
5280;DHT22;2663;53.588;10.010;2023-12-07T10:10:20;4.70;99.90
5280;DHT22;2663;53.588;10.010;2023-12-07T10:12:55;4.60;99.90
5280;DHT22;2663;53.588;10.010;2023-12-07T10:15:23;4.70;99.90
5280;DHT22;2663;53.588;10.010;2023-12-07T10:17:57;4.50;99.90
5280;DHT22;2663;53.588;10.010;2023-12-07T10:20:27;4.50;99.90
5280;DHT22;2663;53.588;10.010;2023-12-07T10:23:04;4.20;99.90
5280;DHT22;2663;53.588;10.010;2023-12-07T10:25:35;4.00;99.90
5280;DHT22;2663;53.588;10.010;2023-12-07T10:28:03;4.00;99.90
5280;DHT22;2663;53.588;10.010;2023-12-07T10:30:34;4.00;99.90
5280;DHT22;2663;53.588;10.010;2023-12-07T10:33:04;4.00;99.90
5280;DHT22;2663;53.588;10.010;2023-12-07T10:35:31;4.10;99.90
5280;DHT22;2663;53.588;10.010;2023-12-07T10:37:58;1.80;99.90
5280;DHT22;2663;53.588;10.010;2023-12-07T10:40:26;4.20;99.90
5280;DHT22;2663;53.588;10.010;2023-12-07T10:42:57;4.00;99.90
5280;DHT22;2663;53.588;10.010;2023-12-07T10:45:30;3.90;99.90
5280;DHT22;2663;53.588;10.010;2023-12-07T10:48:08;1.30;99.90
5280;DHT22;2663;53.588;10.010;2023-12-07T10:50:41;4.00;99.90
5280;DHT22;2663;53.588;10.010;2023-12-07T10:53:21;4.10;99.90
5280;DHT22;2663;53.588;10.010;2023-12-07T10:55:55;4.10;99.90
5280;DHT22;2663;53.588;10.010;2023-12-07T10:58:25;4.20;99.90
5280;DHT22;2663;53.588;10.010;2023-12-07T11:00:54;4.20;99.90
5280;DHT22;2663;53.588;10.010;2023-12-07T11:03:21;7.60;99.90
5280;DHT22;2663;53.588;10.010;2023-12-07T11:05:49;4.30;99.90
5280;DHT22;2663;53.588;10.010;2023-12-07T11:08:35;4.40;99.90
5280;DHT22;2663;53.588;10.010;2023-12-07T11:11:15;4.40;99.90
5280;DHT22;2663;53.588;10.010;2023-12-07T11:13:58;4.50;99.90
5280;DHT22;2663;53.588;10.010;2023-12-07T11:16:33;5.30;99.90
5280;DHT22;2663;53.588;10.010;2023-12-07T11:19:01;5.10;99.90
5280;DHT22;2663;53.588;10.010;2023-12-07T11:21:28;5.00;99.90
5280;DHT22;2663;53.588;10.010;2023-12-07T11:23:55;4.90;99.90
5280;DHT22;2663;53.588;10.010;2023-12-07T11:26:26;4.80;99.90
5280;DHT22;2663;53.588;10.010;2023-12-07T11:28:54;4.80;99.90
5280;DHT22;2663;53.588;10.010;2023-12-07T11:33:49;4.70;99.90
5280;DHT22;2663;53.588;10.010;2023-12-07T11:36:16;4.70;99.90
5280;DHT22;2663;53.588;10.010;2023-12-07T11:39:15;4.60;99.90
5280;DHT22;2663;53.588;10.010;2023-12-07T11:41:54;7.30;99.90
5280;DHT22;2663;53.588;10.010;2023-12-07T11:44:33;4.80;99.90
5280;DHT22;2663;53.588;10.010;2023-12-07T11:47:00;4.80;99.90
5280;DHT22;2663;53.588;10.010;2023-12-07T11:49:28;4.80;99.90
5280;DHT22;2663;53.588;10.010;2023-12-07T11:52:15;4.80;99.90
5280;DHT22;2663;53.588;10.010;2023-12-07T11:54:47;4.80;99.90
5280;DHT22;2663;53.588;10.010;2023-12-07T11:57:14;4.90;99.90
5280;DHT22;2663;53.588;10.010;2023-12-07T11:59:43;4.90;99.90
5280;DHT22;2663;53.588;10.010;2023-12-07T12:02:11;5.20;99.90
5280;DHT22;2663;53.588;10.010;2023-12-07T12:04:39;5.20;99.90
5280;DHT22;2663;53.588;10.010;2023-12-07T12:07:07;5.40;99.90
5280;DHT22;2663;53.588;10.010;2023-12-07T12:09:35;5.30;99.90
5280;DHT22;2663;53.588;10.010;2023-12-07T12:12:01;5.30;99.90
5280;DHT22;2663;53.588;10.010;2023-12-07T12:14:29;5.30;99.90
5280;DHT22;2663;53.588;10.010;2023-12-07T12:16:56;5.20;99.90
5280;DHT22;2663;53.588;10.010;2023-12-07T12:19:23;5.20;99.90
5280;DHT22;2663;53.588;10.010;2023-12-07T12:22:01;5.30;99.90
5280;DHT22;2663;53.588;10.010;2023-12-07T12:24:33;5.20;99.90
5280;DHT22;2663;53.588;10.010;2023-12-07T12:27:01;5.30;99.90
5280;DHT22;2663;53.588;10.010;2023-12-07T12:29:28;5.30;99.90
5280;DHT22;2663;53.588;10.010;2023-12-07T12:32:02;5.20;99.90
5280;DHT22;2663;53.588;10.010;2023-12-07T12:34:29;5.10;99.90
5280;DHT22;2663;53.588;10.010;2023-12-07T12:36:56;4.40;99.90
5280;DHT22;2663;53.588;10.010;2023-12-07T12:39:28;5.10;99.90
5280;DHT22;2663;53.588;10.010;2023-12-07T12:42:00;5.10;99.90
5280;DHT22;2663;53.588;10.010;2023-12-07T12:44:28;5.00;99.90
5280;DHT22;2663;53.588;10.010;2023-12-07T12:47:07;5.00;99.90
5280;DHT22;2663;53.588;10.010;2023-12-07T12:49:38;5.00;99.90
5280;DHT22;2663;53.588;10.010;2023-12-07T12:52:10;5.00;99.90
5280;DHT22;2663;53.588;10.010;2023-12-07T12:54:39;5.00;99.90
5280;DHT22;2663;53.588;10.010;2023-12-07T12:57:09;5.10;99.90
5280;DHT22;2663;53.588;10.010;2023-12-07T12:59:36;5.00;99.90
5280;DHT22;2663;53.588;10.010;2023-12-07T13:02:03;5.00;99.90
5280;DHT22;2663;53.588;10.010;2023-12-07T13:04:34;5.00;99.90
5280;DHT22;2663;53.588;10.010;2023-12-07T13:07:08;5.00;99.90
5280;DHT22;2663;53.588;10.010;2023-12-07T13:09:35;4.90;99.90
5280;DHT22;2663;53.588;10.010;2023-12-07T13:12:02;6.40;99.90
5280;DHT22;2663;53.588;10.010;2023-12-07T13:14:35;4.90;99.90
5280;DHT22;2663;53.588;10.010;2023-12-07T13:17:05;4.90;99.90
5280;DHT22;2663;53.588;10.010;2023-12-07T13:19:33;4.80;99.90
5280;DHT22;2663;53.588;10.010;2023-12-07T13:22:02;4.80;99.90
5280;DHT22;2663;53.588;10.010;2023-12-07T13:24:29;4.90;99.90
5280;DHT22;2663;53.588;10.010;2023-12-07T13:26:57;5.50;99.90
5280;DHT22;2663;53.588;10.010;2023-12-07T13:29:27;4.80;99.90
5280;DHT22;2663;53.588;10.010;2023-12-07T13:32:02;4.80;99.90
5280;DHT22;2663;53.588;10.010;2023-12-07T13:34:29;4.80;99.90
5280;DHT22;2663;53.588;10.010;2023-12-07T13:36:56;4.80;99.90
5280;DHT22;2663;53.588;10.010;2023-12-07T13:39:23;4.80;99.90
5280;DHT22;2663;53.588;10.010;2023-12-07T13:41:57;4.90;99.90
5280;DHT22;2663;53.588;10.010;2023-12-07T13:44:25;4.80;99.90
5280;DHT22;2663;53.588;10.010;2023-12-07T13:46:55;4.90;99.90
5280;DHT22;2663;53.588;10.010;2023-12-07T13:49:23;4.90;99.90
5280;DHT22;2663;53.588;10.010;2023-12-07T13:52:00;4.80;99.90
5280;DHT22;2663;53.588;10.010;2023-12-07T13:54:32;4.80;99.90
5280;DHT22;2663;53.588;10.010;2023-12-07T13:57:22;4.80;99.90
5280;DHT22;2663;53.588;10.010;2023-12-07T13:59:52;4.70;99.90
5280;DHT22;2663;53.588;10.010;2023-12-07T14:02:19;4.70;99.90
5280;DHT22;2663;53.588;10.010;2023-12-07T14:04:47;4.70;99.90
5280;DHT22;2663;53.588;10.010;2023-12-07T14:07:18;4.70;99.90
5280;DHT22;2663;53.588;10.010;2023-12-07T14:09:47;4.90;99.90
5280;DHT22;2663;53.588;10.010;2023-12-07T14:12:24;4.60;99.90
5280;DHT22;2663;53.588;10.010;2023-12-07T14:14:52;4.70;99.90
5280;DHT22;2663;53.588;10.010;2023-12-07T14:17:18;4.60;99.90
5280;DHT22;2663;53.588;10.010;2023-12-07T14:19:47;4.60;99.90
5280;DHT22;2663;53.588;10.010;2023-12-07T14:22:18;4.60;99.90
5280;DHT22;2663;53.588;10.010;2023-12-07T14:24:45;4.60;99.90
5280;DHT22;2663;53.588;10.010;2023-12-07T14:27:14;5.50;99.90
5280;DHT22;2663;53.588;10.010;2023-12-07T14:29:42;4.60;99.90
5280;DHT22;2663;53.588;10.010;2023-12-07T14:32:09;4.60;99.90
5280;DHT22;2663;53.588;10.010;2023-12-07T14:34:36;4.60;99.90
5280;DHT22;2663;53.588;10.010;2023-12-07T14:37:04;4.60;99.90
5280;DHT22;2663;53.588;10.010;2023-12-07T14:39:36;4.60;99.90
5280;DHT22;2663;53.588;10.010;2023-12-07T14:42:03;4.50;99.90
5280;DHT22;2663;53.588;10.010;2023-12-07T14:44:31;4.40;99.90
5280;DHT22;2663;53.588;10.010;2023-12-07T14:46:58;4.40;99.90
5280;DHT22;2663;53.588;10.010;2023-12-07T14:49:26;4.40;99.90
5280;DHT22;2663;53.588;10.010;2023-12-07T14:51:54;4.30;99.90
5280;DHT22;2663;53.588;10.010;2023-12-07T14:54:26;4.30;99.90
5280;DHT22;2663;53.588;10.010;2023-12-07T14:56:56;4.40;99.90
5280;DHT22;2663;53.588;10.010;2023-12-07T14:59:23;4.40;99.90
5280;DHT22;2663;53.588;10.010;2023-12-07T15:01:51;4.30;99.90
5280;DHT22;2663;53.588;10.010;2023-12-07T15:04:18;4.40;99.90
5280;DHT22;2663;53.588;10.010;2023-12-07T15:06:59;4.30;99.90
5280;DHT22;2663;53.588;10.010;2023-12-07T15:09:26;4.40;99.90
5280;DHT22;2663;53.588;10.010;2023-12-07T15:11:53;4.50;99.90
5280;DHT22;2663;53.588;10.010;2023-12-07T15:14:21;4.30;99.90
5280;DHT22;2663;53.588;10.010;2023-12-07T15:17:03;4.30;99.90
5280;DHT22;2663;53.588;10.010;2023-12-07T15:19:31;4.30;99.90
5280;DHT22;2663;53.588;10.010;2023-12-07T15:21:59;4.60;99.90
5280;DHT22;2663;53.588;10.010;2023-12-07T15:24:25;4.40;99.90
5280;DHT22;2663;53.588;10.010;2023-12-07T15:27:05;4.40;99.90
5280;DHT22;2663;53.588;10.010;2023-12-07T15:29:32;4.40;99.90
5280;DHT22;2663;53.588;10.010;2023-12-07T15:32:02;4.50;99.90
5280;DHT22;2663;53.588;10.010;2023-12-07T15:34:29;4.30;99.90
5280;DHT22;2663;53.588;10.010;2023-12-07T15:37:06;4.30;99.90
5280;DHT22;2663;53.588;10.010;2023-12-07T15:39:33;4.30;99.90
5280;DHT22;2663;53.588;10.010;2023-12-07T15:41:59;4.30;99.90
5280;DHT22;2663;53.588;10.010;2023-12-07T15:44:28;4.30;99.90
5280;DHT22;2663;53.588;10.010;2023-12-07T15:46:57;4.40;99.90
5280;DHT22;2663;53.588;10.010;2023-12-07T15:54:25;4.30;99.90
5280;DHT22;2663;53.588;10.010;2023-12-07T15:57:04;4.40;99.90
5280;DHT22;2663;53.588;10.010;2023-12-07T15:59:32;4.40;99.90
5280;DHT22;2663;53.588;10.010;2023-12-07T16:01:58;4.40;99.90
5280;DHT22;2663;53.588;10.010;2023-12-07T16:04:25;4.50;99.90
5280;DHT22;2663;53.588;10.010;2023-12-07T16:07:01;6.50;99.90
5280;DHT22;2663;53.588;10.010;2023-12-07T16:09:31;4.50;99.90
5280;DHT22;2663;53.588;10.010;2023-12-07T16:11:59;4.50;99.90
5280;DHT22;2663;53.588;10.010;2023-12-07T16:14:26;4.50;99.90
5280;DHT22;2663;53.588;10.010;2023-12-07T16:16:57;4.50;99.90
5280;DHT22;2663;53.588;10.010;2023-12-07T16:19:25;4.40;99.90
5280;DHT22;2663;53.588;10.010;2023-12-07T16:21:52;4.40;99.90
5280;DHT22;2663;53.588;10.010;2023-12-07T16:24:18;4.40;99.90
5280;DHT22;2663;53.588;10.010;2023-12-07T16:26:46;4.40;99.90
5280;DHT22;2663;53.588;10.010;2023-12-07T16:29:13;4.40;99.90
5280;DHT22;2663;53.588;10.010;2023-12-07T16:31:42;4.50;99.90
5280;DHT22;2663;53.588;10.010;2023-12-07T16:34:09;4.70;99.90